sensor_id;sensor_type;location;lat;lon;timestamp;temperature;humidity
3690;DHT22;1861;50.240;8.596;2023-03-04T00:00:34;6.10;89.10
3690;DHT22;1861;50.240;8.596;2023-03-04T00:03:02;6.20;89.00
3690;DHT22;1861;50.240;8.596;2023-03-04T00:05:31;6.10;88.90
3690;DHT22;1861;50.240;8.596;2023-03-04T00:07:59;6.20;88.90
3690;DHT22;1861;50.240;8.596;2023-03-04T00:10:27;6.10;89.20
3690;DHT22;1861;50.240;8.596;2023-03-04T00:12:55;6.00;89.30
3690;DHT22;1861;50.240;8.596;2023-03-04T00:15:24;6.00;89.40
3690;DHT22;1861;50.240;8.596;2023-03-04T00:17:52;6.00;89.50
3690;DHT22;1861;50.240;8.596;2023-03-04T00:20:21;6.00;89.60
3690;DHT22;1861;50.240;8.596;2023-03-04T00:22:49;6.00;89.80
3690;DHT22;1861;50.240;8.596;2023-03-04T00:25:17;6.00;89.80
3690;DHT22;1861;50.240;8.596;2023-03-04T00:27:45;6.10;89.70
3690;DHT22;1861;50.240;8.596;2023-03-04T00:30:14;6.10;89.60
3690;DHT22;1861;50.240;8.596;2023-03-04T00:32:43;6.10;89.70
3690;DHT22;1861;50.240;8.596;2023-03-04T00:35:11;6.00;89.50
3690;DHT22;1861;50.240;8.596;2023-03-04T00:37:39;5.90;89.70
3690;DHT22;1861;50.240;8.596;2023-03-04T00:40:10;5.90;89.90
3690;DHT22;1861;50.240;8.596;2023-03-04T00:42:38;5.80;89.50
3690;DHT22;1861;50.240;8.596;2023-03-04T00:45:07;5.80;89.70
3690;DHT22;1861;50.240;8.596;2023-03-04T00:47:36;5.90;89.60
3690;DHT22;1861;50.240;8.596;2023-03-04T00:50:06;5.90;90.00
3690;DHT22;1861;50.240;8.596;2023-03-04T00:52:34;5.90;89.60
3690;DHT22;1861;50.240;8.596;2023-03-04T00:55:03;5.90;89.90
3690;DHT22;1861;50.240;8.596;2023-03-04T00:57:31;5.80;89.80
3690;DHT22;1861;50.240;8.596;2023-03-04T00:59:59;5.80;89.40
3690;DHT22;1861;50.240;8.596;2023-03-04T01:02:27;5.90;89.40
3690;DHT22;1861;50.240;8.596;2023-03-04T01:04:56;5.80;89.60
3690;DHT22;1861;50.240;8.596;2023-03-04T01:07:25;5.80;89.50
3690;DHT22;1861;50.240;8.596;2023-03-04T01:09:53;5.80;89.30
3690;DHT22;1861;50.240;8.596;2023-03-04T01:12:21;5.90;89.70
3690;DHT22;1861;50.240;8.596;2023-03-04T01:14:49;5.80;89.70
3690;DHT22;1861;50.240;8.596;2023-03-04T01:17:17;5.80;89.90
3690;DHT22;1861;50.240;8.596;2023-03-04T01:19:47;5.90;90.10
3690;DHT22;1861;50.240;8.596;2023-03-04T01:22:15;6.10;90.00
3690;DHT22;1861;50.240;8.596;2023-03-04T01:24:48;6.10;89.90
3690;DHT22;1861;50.240;8.596;2023-03-04T01:27:16;6.10;90.00
3690;DHT22;1861;50.240;8.596;2023-03-04T01:29:44;6.10;90.00
3690;DHT22;1861;50.240;8.596;2023-03-04T01:32:12;6.10;90.00
3690;DHT22;1861;50.240;8.596;2023-03-04T01:34:41;6.10;90.10
3690;DHT22;1861;50.240;8.596;2023-03-04T01:37:10;6.10;90.10
3690;DHT22;1861;50.240;8.596;2023-03-04T01:39:39;6.20;90.10
3690;DHT22;1861;50.240;8.596;2023-03-04T01:42:16;6.20;90.20
3690;DHT22;1861;50.240;8.596;2023-03-04T01:44:45;6.20;90.00
3690;DHT22;1861;50.240;8.596;2023-03-04T01:47:14;6.20;90.10
3690;DHT22;1861;50.240;8.596;2023-03-04T01:49:43;6.20;90.20
3690;DHT22;1861;50.240;8.596;2023-03-04T01:52:12;6.20;90.10
3690;DHT22;1861;50.240;8.596;2023-03-04T01:54:40;6.20;90.10
3690;DHT22;1861;50.240;8.596;2023-03-04T01:57:17;6.20;90.00
3690;DHT22;1861;50.240;8.596;2023-03-04T01:59:46;6.30;90.00
3690;DHT22;1861;50.240;8.596;2023-03-04T02:02:16;6.30;90.10
3690;DHT22;1861;50.240;8.596;2023-03-04T02:04:44;6.40;90.00
3690;DHT22;1861;50.240;8.596;2023-03-04T02:07:12;6.30;89.80
3690;DHT22;1861;50.240;8.596;2023-03-04T02:09:40;6.20;90.00
3690;DHT22;1861;50.240;8.596;2023-03-04T02:12:12;6.30;90.10
3690;DHT22;1861;50.240;8.596;2023-03-04T02:14:41;6.20;90.10
3690;DHT22;1861;50.240;8.596;2023-03-04T02:17:10;6.30;90.00
3690;DHT22;1861;50.240;8.596;2023-03-04T02:19:43;6.40;90.00
3690;DHT22;1861;50.240;8.596;2023-03-04T02:22:15;6.30;89.90
3690;DHT22;1861;50.240;8.596;2023-03-04T02:24:47;6.40;89.80
3690;DHT22;1861;50.240;8.596;2023-03-04T02:27:18;6.40;89.60
3690;DHT22;1861;50.240;8.596;2023-03-04T02:29:48;6.40;89.70
3690;DHT22;1861;50.240;8.596;2023-03-04T02:32:16;6.40;89.50
3690;DHT22;1861;50.240;8.596;2023-03-04T02:34:46;6.30;89.70
3690;DHT22;1861;50.240;8.596;2023-03-04T02:37:15;6.30;89.80
3690;DHT22;1861;50.240;8.596;2023-03-04T02:39:45;6.40;89.80
3690;DHT22;1861;50.240;8.596;2023-03-04T02:42:13;6.40;89.40
3690;DHT22;1861;50.240;8.596;2023-03-04T02:44:44;6.50;89.50
3690;DHT22;1861;50.240;8.596;2023-03-04T02:47:17;6.40;89.50
3690;DHT22;1861;50.240;8.596;2023-03-04T02:49:47;6.50;90.00
3690;DHT22;1861;50.240;8.596;2023-03-04T02:52:18;6.50;89.50
3690;DHT22;1861;50.240;8.596;2023-03-04T02:54:46;6.40;89.50
3690;DHT22;1861;50.240;8.596;2023-03-04T02:57:16;6.40;89.30
3690;DHT22;1861;50.240;8.596;2023-03-04T02:59:49;6.50;89.40
3690;DHT22;1861;50.240;8.596;2023-03-04T03:02:20;6.40;89.20
3690;DHT22;1861;50.240;8.596;2023-03-04T03:04:50;6.40;89.20
3690;DHT22;1861;50.240;8.596;2023-03-04T03:07:19;6.50;89.30
3690;DHT22;1861;50.240;8.596;2023-03-04T03:09:48;6.40;89.30
3690;DHT22;1861;50.240;8.596;2023-03-04T03:12:17;6.40;89.40
3690;DHT22;1861;50.240;8.596;2023-03-04T03:14:45;6.50;89.60
3690;DHT22;1861;50.240;8.596;2023-03-04T03:17:18;6.50;89.20
3690;DHT22;1861;50.240;8.596;2023-03-04T03:19:46;6.50;89.40
3690;DHT22;1861;50.240;8.596;2023-03-04T03:22:15;6.40;89.60
3690;DHT22;1861;50.240;8.596;2023-03-04T03:24:43;6.50;89.50
3690;DHT22;1861;50.240;8.596;2023-03-04T03:27:11;6.50;89.60
3690;DHT22;1861;50.240;8.596;2023-03-04T03:29:39;6.50;89.50
3690;DHT22;1861;50.240;8.596;2023-03-04T03:32:07;6.40;89.50
3690;DHT22;1861;50.240;8.596;2023-03-04T03:34:38;6.50;89.60
3690;DHT22;1861;50.240;8.596;2023-03-04T03:37:07;6.50;89.50
3690;DHT22;1861;50.240;8.596;2023-03-04T03:39:35;6.50;89.60
3690;DHT22;1861;50.240;8.596;2023-03-04T03:42:03;6.50;89.60
3690;DHT22;1861;50.240;8.596;2023-03-04T03:44:31;6.50;89.50
3690;DHT22;1861;50.240;8.596;2023-03-04T03:47:00;6.50;89.70
3690;DHT22;1861;50.240;8.596;2023-03-04T03:49:28;6.50;89.70
3690;DHT22;1861;50.240;8.596;2023-03-04T03:51:57;6.50;89.70
3690;DHT22;1861;50.240;8.596;2023-03-04T03:54:25;6.50;89.80
3690;DHT22;1861;50.240;8.596;2023-03-04T03:56:53;6.50;89.60
3690;DHT22;1861;50.240;8.596;2023-03-04T03:59:21;6.50;89.70
3690;DHT22;1861;50.240;8.596;2023-03-04T04:01:50;6.50;89.70
3690;DHT22;1861;50.240;8.596;2023-03-04T04:04:18;6.50;90.00
3690;DHT22;1861;50.240;8.596;2023-03-04T04:06:46;6.40;89.90
3690;DHT22;1861;50.240;8.596;2023-03-04T04:09:16;6.40;90.10
3690;DHT22;1861;50.240;8.596;2023-03-04T04:11:44;6.40;90.00
3690;DHT22;1861;50.240;8.596;2023-03-04T04:14:12;6.50;90.00
3690;DHT22;1861;50.240;8.596;2023-03-04T04:16:41;6.50;89.90
3690;DHT22;1861;50.240;8.596;2023-03-04T04:19:15;6.50;89.90
3690;DHT22;1861;50.240;8.596;2023-03-04T04:21:43;6.60;89.80
3690;DHT22;1861;50.240;8.596;2023-03-04T04:24:12;6.50;89.60
3690;DHT22;1861;50.240;8.596;2023-03-04T04:26:42;6.50;89.60
3690;DHT22;1861;50.240;8.596;2023-03-04T04:29:12;6.50;89.80
3690;DHT22;1861;50.240;8.596;2023-03-04T04:31:40;6.50;89.70
3690;DHT22;1861;50.240;8.596;2023-03-04T04:34:08;6.50;89.60
3690;DHT22;1861;50.240;8.596;2023-03-04T04:36:36;6.60;89.60
3690;DHT22;1861;50.240;8.596;2023-03-04T04:39:05;6.50;89.30
3690;DHT22;1861;50.240;8.596;2023-03-04T04:41:36;6.50;89.60
3690;DHT22;1861;50.240;8.596;2023-03-04T04:44:06;6.50;89.70
3690;DHT22;1861;50.240;8.596;2023-03-04T04:46:35;6.50;89.50
3690;DHT22;1861;50.240;8.596;2023-03-04T04:49:04;6.50;89.60
3690;DHT22;1861;50.240;8.596;2023-03-04T04:51:33;6.50;89.40
3690;DHT22;1861;50.240;8.596;2023-03-04T04:54:02;6.50;89.40
3690;DHT22;1861;50.240;8.596;2023-03-04T04:56:30;6.60;89.40
3690;DHT22;1861;50.240;8.596;2023-03-04T04:59:00;6.60;89.30
3690;DHT22;1861;50.240;8.596;2023-03-04T05:01:30;6.50;89.60
3690;DHT22;1861;50.240;8.596;2023-03-04T05:03:58;6.40;89.80
3690;DHT22;1861;50.240;8.596;2023-03-04T05:06:26;6.50;89.50
3690;DHT22;1861;50.240;8.596;2023-03-04T05:08:54;6.60;89.40
3690;DHT22;1861;50.240;8.596;2023-03-04T05:11:22;6.50;89.30
3690;DHT22;1861;50.240;8.596;2023-03-04T05:13:50;6.50;89.50
3690;DHT22;1861;50.240;8.596;2023-03-04T05:16:19;6.40;89.40
3690;DHT22;1861;50.240;8.596;2023-03-04T05:18:48;6.50;89.30
3690;DHT22;1861;50.240;8.596;2023-03-04T05:21:16;6.40;89.10
3690;DHT22;1861;50.240;8.596;2023-03-04T05:23:44;6.40;89.30
3690;DHT22;1861;50.240;8.596;2023-03-04T05:26:14;6.50;89.30
3690;DHT22;1861;50.240;8.596;2023-03-04T05:28:42;6.50;89.20
3690;DHT22;1861;50.240;8.596;2023-03-04T05:31:11;6.50;89.10
3690;DHT22;1861;50.240;8.596;2023-03-04T05:33:39;6.40;89.10
3690;DHT22;1861;50.240;8.596;2023-03-04T05:36:09;6.40;89.50
3690;DHT22;1861;50.240;8.596;2023-03-04T05:38:37;6.50;89.40
3690;DHT22;1861;50.240;8.596;2023-03-04T05:41:06;6.50;89.30
3690;DHT22;1861;50.240;8.596;2023-03-04T05:43:34;6.40;89.30
3690;DHT22;1861;50.240;8.596;2023-03-04T05:46:04;6.50;89.40
3690;DHT22;1861;50.240;8.596;2023-03-04T05:48:32;6.50;89.30
3690;DHT22;1861;50.240;8.596;2023-03-04T05:51:01;6.50;89.10
3690;DHT22;1861;50.240;8.596;2023-03-04T05:53:30;6.50;89.30
3690;DHT22;1861;50.240;8.596;2023-03-04T05:55:58;6.50;89.20
3690;DHT22;1861;50.240;8.596;2023-03-04T05:58:26;6.50;89.30
3690;DHT22;1861;50.240;8.596;2023-03-04T06:00:54;6.40;89.30
3690;DHT22;1861;50.240;8.596;2023-03-04T06:03:26;6.40;89.30
3690;DHT22;1861;50.240;8.596;2023-03-04T06:05:54;6.40;89.30
3690;DHT22;1861;50.240;8.596;2023-03-04T06:08:22;6.40;89.30
3690;DHT22;1861;50.240;8.596;2023-03-04T06:10:54;6.40;89.40
3690;DHT22;1861;50.240;8.596;2023-03-04T06:13:22;6.40;89.20
3690;DHT22;1861;50.240;8.596;2023-03-04T06:15:53;6.40;89.20
3690;DHT22;1861;50.240;8.596;2023-03-04T06:18:21;6.50;89.40
3690;DHT22;1861;50.240;8.596;2023-03-04T06:20:50;6.50;89.30
3690;DHT22;1861;50.240;8.596;2023-03-04T06:23:22;6.50;89.20
3690;DHT22;1861;50.240;8.596;2023-03-04T06:25:52;6.50;88.90
3690;DHT22;1861;50.240;8.596;2023-03-04T06:28:21;6.50;89.20
3690;DHT22;1861;50.240;8.596;2023-03-04T06:30:51;6.50;89.20
3690;DHT22;1861;50.240;8.596;2023-03-04T06:33:19;6.50;89.40
3690;DHT22;1861;50.240;8.596;2023-03-04T06:35:48;6.60;89.10
3690;DHT22;1861;50.240;8.596;2023-03-04T06:38:16;6.50;88.90
3690;DHT22;1861;50.240;8.596;2023-03-04T06:40:44;6.50;89.30
3690;DHT22;1861;50.240;8.596;2023-03-04T06:43:13;6.50;89.50
3690;DHT22;1861;50.240;8.596;2023-03-04T06:45:41;6.60;89.20
3690;DHT22;1861;50.240;8.596;2023-03-04T06:48:09;6.60;89.00
3690;DHT22;1861;50.240;8.596;2023-03-04T06:50:39;6.60;89.30
3690;DHT22;1861;50.240;8.596;2023-03-04T06:53:07;6.50;89.40
3690;DHT22;1861;50.240;8.596;2023-03-04T06:55:35;6.60;89.40
3690;DHT22;1861;50.240;8.596;2023-03-04T06:58:03;6.60;89.20
3690;DHT22;1861;50.240;8.596;2023-03-04T07:00:32;6.60;89.50
3690;DHT22;1861;50.240;8.596;2023-03-04T07:03:00;6.60;89.40
3690;DHT22;1861;50.240;8.596;2023-03-04T07:05:29;6.50;89.60
3690;DHT22;1861;50.240;8.596;2023-03-04T07:07:57;6.50;89.70
3690;DHT22;1861;50.240;8.596;2023-03-04T07:10:25;6.50;89.80
3690;DHT22;1861;50.240;8.596;2023-03-04T07:12:53;6.60;89.60
3690;DHT22;1861;50.240;8.596;2023-03-04T07:15:21;6.60;89.90
3690;DHT22;1861;50.240;8.596;2023-03-04T07:17:50;6.60;89.80
3690;DHT22;1861;50.240;8.596;2023-03-04T07:20:18;6.60;89.90
3690;DHT22;1861;50.240;8.596;2023-03-04T07:22:46;6.70;89.70
3690;DHT22;1861;50.240;8.596;2023-03-04T07:25:14;6.60;89.70
3690;DHT22;1861;50.240;8.596;2023-03-04T07:27:43;6.70;89.80
3690;DHT22;1861;50.240;8.596;2023-03-04T07:30:12;6.70;89.80
3690;DHT22;1861;50.240;8.596;2023-03-04T07:32:40;6.60;89.60
3690;DHT22;1861;50.240;8.596;2023-03-04T07:35:10;6.60;90.00
3690;DHT22;1861;50.240;8.596;2023-03-04T07:37:38;6.70;90.10
3690;DHT22;1861;50.240;8.596;2023-03-04T07:40:08;6.80;89.80
3690;DHT22;1861;50.240;8.596;2023-03-04T07:42:36;6.70;89.50
3690;DHT22;1861;50.240;8.596;2023-03-04T07:45:10;6.80;89.70
3690;DHT22;1861;50.240;8.596;2023-03-04T07:47:38;6.80;89.70
3690;DHT22;1861;50.240;8.596;2023-03-04T07:50:10;6.80;89.70
3690;DHT22;1861;50.240;8.596;2023-03-04T07:52:38;6.70;89.80
3690;DHT22;1861;50.240;8.596;2023-03-04T07:55:07;6.70;89.70
3690;DHT22;1861;50.240;8.596;2023-03-04T07:57:37;6.70;90.00
3690;DHT22;1861;50.240;8.596;2023-03-04T08:00:06;6.70;89.70
3690;DHT22;1861;50.240;8.596;2023-03-04T08:02:38;6.80;89.90
3690;DHT22;1861;50.240;8.596;2023-03-04T08:05:06;6.80;89.90
3690;DHT22;1861;50.240;8.596;2023-03-04T08:07:36;6.80;89.70
3690;DHT22;1861;50.240;8.596;2023-03-04T08:10:05;6.90;89.80
3690;DHT22;1861;50.240;8.596;2023-03-04T08:12:34;6.80;89.70
3690;DHT22;1861;50.240;8.596;2023-03-04T08:15:03;6.90;89.60
3690;DHT22;1861;50.240;8.596;2023-03-04T08:17:31;6.90;89.40
3690;DHT22;1861;50.240;8.596;2023-03-04T08:19:59;6.90;89.80
3690;DHT22;1861;50.240;8.596;2023-03-04T08:22:27;6.80;89.70
3690;DHT22;1861;50.240;8.596;2023-03-04T08:24:57;6.90;90.00
3690;DHT22;1861;50.240;8.596;2023-03-04T08:27:25;6.80;89.70
3690;DHT22;1861;50.240;8.596;2023-03-04T08:29:53;6.90;89.50
3690;DHT22;1861;50.240;8.596;2023-03-04T08:32:21;6.90;90.00
3690;DHT22;1861;50.240;8.596;2023-03-04T08:34:49;6.90;89.90
3690;DHT22;1861;50.240;8.596;2023-03-04T08:37:17;6.90;90.10
3690;DHT22;1861;50.240;8.596;2023-03-04T08:39:45;6.80;89.80
3690;DHT22;1861;50.240;8.596;2023-03-04T08:42:15;6.80;90.00
3690;DHT22;1861;50.240;8.596;2023-03-04T08:44:43;6.90;90.10
3690;DHT22;1861;50.240;8.596;2023-03-04T08:47:11;6.90;90.10
3690;DHT22;1861;50.240;8.596;2023-03-04T08:49:39;6.90;89.90
3690;DHT22;1861;50.240;8.596;2023-03-04T08:52:07;7.00;90.00
3690;DHT22;1861;50.240;8.596;2023-03-04T08:54:35;7.00;90.00
3690;DHT22;1861;50.240;8.596;2023-03-04T08:57:03;7.00;90.00
3690;DHT22;1861;50.240;8.596;2023-03-04T08:59:34;7.00;90.00
3690;DHT22;1861;50.240;8.596;2023-03-04T09:02:04;7.10;89.90
3690;DHT22;1861;50.240;8.596;2023-03-04T09:04:32;7.00;90.00
3690;DHT22;1861;50.240;8.596;2023-03-04T09:07:00;7.00;90.00
3690;DHT22;1861;50.240;8.596;2023-03-04T09:09:28;7.00;90.10
3690;DHT22;1861;50.240;8.596;2023-03-04T09:11:56;7.00;90.10
3690;DHT22;1861;50.240;8.596;2023-03-04T09:14:25;7.10;90.00
3690;DHT22;1861;50.240;8.596;2023-03-04T09:16:54;7.00;89.90
3690;DHT22;1861;50.240;8.596;2023-03-04T09:19:22;7.10;90.00
3690;DHT22;1861;50.240;8.596;2023-03-04T09:21:50;7.10;90.30
3690;DHT22;1861;50.240;8.596;2023-03-04T09:24:18;7.10;90.10
3690;DHT22;1861;50.240;8.596;2023-03-04T09:26:49;7.10;90.00
3690;DHT22;1861;50.240;8.596;2023-03-04T09:29:17;7.20;90.00
3690;DHT22;1861;50.240;8.596;2023-03-04T09:31:45;7.20;90.00
3690;DHT22;1861;50.240;8.596;2023-03-04T09:34:15;7.20;89.80
3690;DHT22;1861;50.240;8.596;2023-03-04T09:36:43;7.20;89.80
3690;DHT22;1861;50.240;8.596;2023-03-04T09:39:11;7.30;90.10
3690;DHT22;1861;50.240;8.596;2023-03-04T09:41:41;7.30;89.90
3690;DHT22;1861;50.240;8.596;2023-03-04T09:44:20;7.30;89.70
3690;DHT22;1861;50.240;8.596;2023-03-04T09:46:49;7.20;89.70
3690;DHT22;1861;50.240;8.596;2023-03-04T09:49:20;7.30;90.00
3690;DHT22;1861;50.240;8.596;2023-03-04T09:51:54;7.40;89.60
3690;DHT22;1861;50.240;8.596;2023-03-04T09:54:31;7.40;89.70
3690;DHT22;1861;50.240;8.596;2023-03-04T09:57:18;7.40;89.70
3690;DHT22;1861;50.240;8.596;2023-03-04T09:59:52;7.30;89.80
3690;DHT22;1861;50.240;8.596;2023-03-04T10:02:25;7.40;89.60
3690;DHT22;1861;50.240;8.596;2023-03-04T10:04:59;7.40;90.00
3690;DHT22;1861;50.240;8.596;2023-03-04T10:07:33;7.40;89.90
3690;DHT22;1861;50.240;8.596;2023-03-04T10:10:05;7.40;90.00
3690;DHT22;1861;50.240;8.596;2023-03-04T10:12:36;7.50;90.00
3690;DHT22;1861;50.240;8.596;2023-03-04T10:15:17;7.40;90.00
3690;DHT22;1861;50.240;8.596;2023-03-04T10:17:51;7.40;89.70
3690;DHT22;1861;50.240;8.596;2023-03-04T10:20:23;7.40;90.00
3690;DHT22;1861;50.240;8.596;2023-03-04T10:22:57;7.60;90.10
3690;DHT22;1861;50.240;8.596;2023-03-04T10:25:27;7.60;90.00
3690;DHT22;1861;50.240;8.596;2023-03-04T10:27:58;7.60;90.00
3690;DHT22;1861;50.240;8.596;2023-03-04T10:30:38;7.60;90.10
3690;DHT22;1861;50.240;8.596;2023-03-04T10:33:12;7.70;90.00
3690;DHT22;1861;50.240;8.596;2023-03-04T10:35:44;7.60;90.00
3690;DHT22;1861;50.240;8.596;2023-03-04T10:38:13;7.60;90.00
3690;DHT22;1861;50.240;8.596;2023-03-04T10:40:42;7.60;89.40
3690;DHT22;1861;50.240;8.596;2023-03-04T10:43:16;7.60;89.70
3690;DHT22;1861;50.240;8.596;2023-03-04T10:45:44;7.60;90.00
3690;DHT22;1861;50.240;8.596;2023-03-04T10:48:19;7.60;89.80
3690;DHT22;1861;50.240;8.596;2023-03-04T10:50:49;7.60;89.90
3690;DHT22;1861;50.240;8.596;2023-03-04T10:53:30;7.70;90.00
3690;DHT22;1861;50.240;8.596;2023-03-04T10:56:00;7.60;89.90
3690;DHT22;1861;50.240;8.596;2023-03-04T10:58:29;7.60;90.00
3690;DHT22;1861;50.240;8.596;2023-03-04T11:01:02;7.60;90.00
3690;DHT22;1861;50.240;8.596;2023-03-04T11:03:33;7.70;89.90
3690;DHT22;1861;50.240;8.596;2023-03-04T11:06:14;7.70;90.00
3690;DHT22;1861;50.240;8.596;2023-03-04T11:08:43;7.70;89.90
3690;DHT22;1861;50.240;8.596;2023-03-04T11:11:24;7.70;90.10
3690;DHT22;1861;50.240;8.596;2023-03-04T11:13:58;7.80;90.10
3690;DHT22;1861;50.240;8.596;2023-03-04T11:16:28;7.80;90.20
3690;DHT22;1861;50.240;8.596;2023-03-04T11:19:00;7.80;90.10
3690;DHT22;1861;50.240;8.596;2023-03-04T11:21:36;7.80;90.10
3690;DHT22;1861;50.240;8.596;2023-03-04T11:24:12;7.90;90.10
3690;DHT22;1861;50.240;8.596;2023-03-04T11:26:58;7.90;90.00
3690;DHT22;1861;50.240;8.596;2023-03-04T11:29:31;7.90;90.10
3690;DHT22;1861;50.240;8.596;2023-03-04T11:32:06;7.90;90.00
3690;DHT22;1861;50.240;8.596;2023-03-04T11:34:40;7.90;89.80
3690;DHT22;1861;50.240;8.596;2023-03-04T11:37:15;7.90;90.30
3690;DHT22;1861;50.240;8.596;2023-03-04T11:39:49;8.00;90.00
3690;DHT22;1861;50.240;8.596;2023-03-04T11:42:24;8.00;89.70
3690;DHT22;1861;50.240;8.596;2023-03-04T11:44:55;8.00;90.00
3690;DHT22;1861;50.240;8.596;2023-03-04T11:47:37;8.00;89.50
3690;DHT22;1861;50.240;8.596;2023-03-04T11:50:30;8.00;90.00
3690;DHT22;1861;50.240;8.596;2023-03-04T11:53:13;8.00;89.80
3690;DHT22;1861;50.240;8.596;2023-03-04T11:55:48;8.00;89.70
3690;DHT22;1861;50.240;8.596;2023-03-04T11:58:38;8.10;89.70
3690;DHT22;1861;50.240;8.596;2023-03-04T12:01:14;8.10;89.80
3690;DHT22;1861;50.240;8.596;2023-03-04T12:04:00;8.20;89.60
3690;DHT22;1861;50.240;8.596;2023-03-04T12:06:37;8.10;89.70
3690;DHT22;1861;50.240;8.596;2023-03-04T12:09:21;8.10;89.50
3690;DHT22;1861;50.240;8.596;2023-03-04T12:11:59;8.20;89.80
3690;DHT22;1861;50.240;8.596;2023-03-04T12:14:33;8.20;89.60
3690;DHT22;1861;50.240;8.596;2023-03-04T12:17:32;8.20;89.50
3690;DHT22;1861;50.240;8.596;2023-03-04T12:20:19;8.30;89.60
3690;DHT22;1861;50.240;8.596;2023-03-04T12:22:55;8.40;89.50
3690;DHT22;1861;50.240;8.596;2023-03-04T12:25:42;8.40;89.20
3690;DHT22;1861;50.240;8.596;2023-03-04T12:28:27;8.40;88.70
3690;DHT22;1861;50.240;8.596;2023-03-04T12:31:11;8.40;89.50
3690;DHT22;1861;50.240;8.596;2023-03-04T12:33:56;8.40;89.00
3690;DHT22;1861;50.240;8.596;2023-03-04T12:36:35;8.50;88.70
3690;DHT22;1861;50.240;8.596;2023-03-04T12:39:18;8.50;88.70
3690;DHT22;1861;50.240;8.596;2023-03-04T12:41:59;8.60;88.50
3690;DHT22;1861;50.240;8.596;2023-03-04T12:44:32;8.60;88.60
3690;DHT22;1861;50.240;8.596;2023-03-04T12:47:19;8.60;88.50
3690;DHT22;1861;50.240;8.596;2023-03-04T12:49:55;8.60;88.90
3690;DHT22;1861;50.240;8.596;2023-03-04T12:52:38;8.70;88.40
3690;DHT22;1861;50.240;8.596;2023-03-04T12:55:11;8.60;88.40
3690;DHT22;1861;50.240;8.596;2023-03-04T12:57:41;8.70;88.70
3690;DHT22;1861;50.240;8.596;2023-03-04T13:00:19;8.60;88.60
3690;DHT22;1861;50.240;8.596;2023-03-04T13:02:58;8.70;88.80
3690;DHT22;1861;50.240;8.596;2023-03-04T13:08:33;8.60;88.70
3690;DHT22;1861;50.240;8.596;2023-03-04T13:14:25;8.70;89.00
3690;DHT22;1861;50.240;8.596;2023-03-04T13:16:55;8.60;88.70
3690;DHT22;1861;50.240;8.596;2023-03-04T13:19:47;8.60;88.80
3690;DHT22;1861;50.240;8.596;2023-03-04T13:22:40;8.50;88.80
3690;DHT22;1861;50.240;8.596;2023-03-04T13:25:31;8.60;89.20
3690;DHT22;1861;50.240;8.596;2023-03-04T13:28:24;8.70;89.40
3690;DHT22;1861;50.240;8.596;2023-03-04T13:31:22;8.70;89.30
3690;DHT22;1861;50.240;8.596;2023-03-04T13:34:00;8.70;89.20
3690;DHT22;1861;50.240;8.596;2023-03-04T13:39:28;8.70;89.20
3690;DHT22;1861;50.240;8.596;2023-03-04T13:41:58;8.70;89.20
3690;DHT22;1861;50.240;8.596;2023-03-04T13:44:57;8.70;89.20
3690;DHT22;1861;50.240;8.596;2023-03-04T13:47:31;8.70;89.70
3690;DHT22;1861;50.240;8.596;2023-03-04T13:50:21;8.70;89.50
3690;DHT22;1861;50.240;8.596;2023-03-04T13:52:49;8.70;89.50
3690;DHT22;1861;50.240;8.596;2023-03-04T13:55:35;8.70;89.40
3690;DHT22;1861;50.240;8.596;2023-03-04T13:58:16;8.60;89.20
3690;DHT22;1861;50.240;8.596;2023-03-04T14:00:50;8.60;89.30
3690;DHT22;1861;50.240;8.596;2023-03-04T14:03:22;8.50;89.40
3690;DHT22;1861;50.240;8.596;2023-03-04T14:06:12;8.50;89.80
3690;DHT22;1861;50.240;8.596;2023-03-04T14:08:42;8.50;90.00
3690;DHT22;1861;50.240;8.596;2023-03-04T14:11:13;8.50;89.90
3690;DHT22;1861;50.240;8.596;2023-03-04T14:13:42;8.60;90.20
3690;DHT22;1861;50.240;8.596;2023-03-04T14:16:10;8.50;90.20
3690;DHT22;1861;50.240;8.596;2023-03-04T14:18:40;8.50;90.10
3690;DHT22;1861;50.240;8.596;2023-03-04T14:21:13;8.50;90.30
3690;DHT22;1861;50.240;8.596;2023-03-04T14:23:42;8.50;90.30
3690;DHT22;1861;50.240;8.596;2023-03-04T14:26:12;8.40;90.20
3690;DHT22;1861;50.240;8.596;2023-03-04T14:28:44;8.40;90.20
3690;DHT22;1861;50.240;8.596;2023-03-04T14:31:18;8.40;90.50
3690;DHT22;1861;50.240;8.596;2023-03-04T14:33:50;8.30;90.60
3690;DHT22;1861;50.240;8.596;2023-03-04T14:36:21;8.50;90.70
3690;DHT22;1861;50.240;8.596;2023-03-04T14:38:52;8.50;90.70
3690;DHT22;1861;50.240;8.596;2023-03-04T14:41:24;8.50;90.60
3690;DHT22;1861;50.240;8.596;2023-03-04T14:43:59;8.40;90.50
3690;DHT22;1861;50.240;8.596;2023-03-04T14:46:31;8.40;90.60
3690;DHT22;1861;50.240;8.596;2023-03-04T14:49:03;8.50;90.60
3690;DHT22;1861;50.240;8.596;2023-03-04T14:51:37;8.40;90.70
3690;DHT22;1861;50.240;8.596;2023-03-04T14:54:32;8.50;90.80
3690;DHT22;1861;50.240;8.596;2023-03-04T14:57:15;8.50;90.90
3690;DHT22;1861;50.240;8.596;2023-03-04T14:59:47;8.60;90.80
3690;DHT22;1861;50.240;8.596;2023-03-04T15:02:23;8.60;90.90
3690;DHT22;1861;50.240;8.596;2023-03-04T15:05:00;8.50;90.90
3690;DHT22;1861;50.240;8.596;2023-03-04T15:07:31;8.50;90.80
3690;DHT22;1861;50.240;8.596;2023-03-04T15:10:02;8.40;90.80
3690;DHT22;1861;50.240;8.596;2023-03-04T15:12:33;8.50;91.00
3690;DHT22;1861;50.240;8.596;2023-03-04T15:15:03;8.40;90.90
3690;DHT22;1861;50.240;8.596;2023-03-04T15:17:34;8.40;90.90
3690;DHT22;1861;50.240;8.596;2023-03-04T15:20:23;8.40;91.00
3690;DHT22;1861;50.240;8.596;2023-03-04T15:23:00;8.40;91.30
3690;DHT22;1861;50.240;8.596;2023-03-04T15:25:28;8.50;91.10
3690;DHT22;1861;50.240;8.596;2023-03-04T15:27:57;8.40;91.10
3690;DHT22;1861;50.240;8.596;2023-03-04T15:30:30;8.40;91.10
3690;DHT22;1861;50.240;8.596;2023-03-04T15:32:58;8.40;91.20
3690;DHT22;1861;50.240;8.596;2023-03-04T15:35:31;8.40;91.30
3690;DHT22;1861;50.240;8.596;2023-03-04T15:37:59;8.40;91.20
3690;DHT22;1861;50.240;8.596;2023-03-04T15:40:30;8.40;91.20
3690;DHT22;1861;50.240;8.596;2023-03-04T15:43:00;8.40;91.40
3690;DHT22;1861;50.240;8.596;2023-03-04T15:45:30;8.40;91.40
3690;DHT22;1861;50.240;8.596;2023-03-04T15:48:02;8.40;91.40
3690;DHT22;1861;50.240;8.596;2023-03-04T15:50:36;8.40;91.40
3690;DHT22;1861;50.240;8.596;2023-03-04T15:53:07;8.30;91.40
3690;DHT22;1861;50.240;8.596;2023-03-04T15:55:35;8.30;91.50
3690;DHT22;1861;50.240;8.596;2023-03-04T15:58:03;8.30;91.40
3690;DHT22;1861;50.240;8.596;2023-03-04T16:00:32;8.30;91.60
3690;DHT22;1861;50.240;8.596;2023-03-04T16:03:00;8.30;91.60
3690;DHT22;1861;50.240;8.596;2023-03-04T16:05:28;8.20;92.00
3690;DHT22;1861;50.240;8.596;2023-03-04T16:07:58;8.20;91.70
3690;DHT22;1861;50.240;8.596;2023-03-04T16:10:27;8.20;91.80
3690;DHT22;1861;50.240;8.596;2023-03-04T16:12:56;8.20;91.90
3690;DHT22;1861;50.240;8.596;2023-03-04T16:15:27;8.20;91.90
3690;DHT22;1861;50.240;8.596;2023-03-04T16:17:55;8.20;91.90
3690;DHT22;1861;50.240;8.596;2023-03-04T16:20:27;8.30;92.00
3690;DHT22;1861;50.240;8.596;2023-03-04T16:22:59;8.30;92.00
3690;DHT22;1861;50.240;8.596;2023-03-04T16:25:28;8.30;92.30
3690;DHT22;1861;50.240;8.596;2023-03-04T16:27:57;8.20;92.00
3690;DHT22;1861;50.240;8.596;2023-03-04T16:30:30;8.20;92.00
3690;DHT22;1861;50.240;8.596;2023-03-04T16:32:58;8.30;92.10
3690;DHT22;1861;50.240;8.596;2023-03-04T16:35:26;8.30;92.20
3690;DHT22;1861;50.240;8.596;2023-03-04T16:37:55;8.30;92.20
3690;DHT22;1861;50.240;8.596;2023-03-04T16:40:27;8.30;92.20
3690;DHT22;1861;50.240;8.596;2023-03-04T16:42:55;8.30;92.30
3690;DHT22;1861;50.240;8.596;2023-03-04T16:45:25;8.30;92.40
3690;DHT22;1861;50.240;8.596;2023-03-04T16:47:56;8.20;92.40
3690;DHT22;1861;50.240;8.596;2023-03-04T16:50:25;8.20;92.40
3690;DHT22;1861;50.240;8.596;2023-03-04T16:52:56;8.20;92.70